createdAt,value
2019-03-21T00:01:28.421Z,94.00
2019-03-21T00:04:00.865Z,94.40
2019-03-21T00:06:30.316Z,94.70
2019-03-21T00:08:59.713Z,94.80
2019-03-21T00:12:17.891Z,94.90
2019-03-21T00:15:25.616Z,95.00
2019-03-21T00:17:59.659Z,95.20
2019-03-21T00:20:29.257Z,95.50
2019-03-21T00:22:58.830Z,95.70
2019-03-21T00:25:28.393Z,95.80
2019-03-21T00:27:58.068Z,95.90
2019-03-21T00:30:27.994Z,96.00
2019-03-21T00:32:57.566Z,96.10
2019-03-21T00:35:27.649Z,96.10
2019-03-21T00:37:57.189Z,96.20
2019-03-21T00:40:29.081Z,96.30
2019-03-21T00:43:00.176Z,96.50
2019-03-21T00:45:29.838Z,96.40
2019-03-21T00:47:59.414Z,96.80
2019-03-21T00:50:28.959Z,96.90
2019-03-21T00:52:58.524Z,97.30
2019-03-21T00:55:28.512Z,97.70
2019-03-21T00:57:58.723Z,97.70
2019-03-21T01:00:31.885Z,97.90
2019-03-21T01:03:04.206Z,97.90
2019-03-21T01:05:33.753Z,98.00
2019-03-21T01:08:04.049Z,98.30
2019-03-21T01:10:33.903Z,98.50
2019-03-21T01:13:03.384Z,98.50
2019-03-21T01:15:33.059Z,98.60
2019-03-21T01:18:02.478Z,98.40
2019-03-21T01:20:32.060Z,98.20
2019-03-21T01:23:01.461Z,98.30
2019-03-21T01:25:34.352Z,98.50
2019-03-21T01:28:03.890Z,98.50
2019-03-21T01:30:33.480Z,98.70
2019-03-21T01:33:03.273Z,98.60
2019-03-21T01:35:32.822Z,98.80
2019-03-21T01:38:02.330Z,98.80
2019-03-21T01:40:32.769Z,98.80
2019-03-21T01:43:02.216Z,98.90
2019-03-21T01:45:31.728Z,99.40
2019-03-21T01:48:01.226Z,99.40
2019-03-21T01:50:30.992Z,99.50
2019-03-21T01:53:00.885Z,99.90
2019-03-21T01:55:30.332Z,99.90
2019-03-21T01:57:59.798Z,99.90
2019-03-21T02:00:34.442Z,99.90
2019-03-21T02:03:03.906Z,99.90
2019-03-21T02:05:33.472Z,99.90
2019-03-21T02:08:03.134Z,99.90
2019-03-21T02:10:32.529Z,99.90
2019-03-21T02:13:02.090Z,99.90
2019-03-21T02:15:31.619Z,99.90
2019-03-21T02:18:01.002Z,99.90
2019-03-21T02:20:30.525Z,99.90
2019-03-21T02:23:00.316Z,99.90
2019-03-21T02:25:30.285Z,99.90
2019-03-21T02:27:59.834Z,99.90
2019-03-21T02:30:31.490Z,99.90
2019-03-21T02:33:11.018Z,99.90
2019-03-21T02:35:40.842Z,99.90
2019-03-21T02:38:10.593Z,99.90
2019-03-21T02:40:40.339Z,99.90
2019-03-21T02:43:10.121Z,99.90
2019-03-21T02:45:39.657Z,99.90
2019-03-21T02:48:09.118Z,99.90
2019-03-21T02:50:38.624Z,99.90
2019-03-21T02:53:08.185Z,99.90
2019-03-21T02:55:37.590Z,99.90
2019-03-21T02:58:07.054Z,99.90
2019-03-21T03:00:36.583Z,99.90
2019-03-21T03:03:06.121Z,99.90
2019-03-21T03:05:36.008Z,99.90
2019-03-21T03:08:06.001Z,99.90
2019-03-21T03:10:41.352Z,99.90
2019-03-21T03:13:10.791Z,99.90
2019-03-21T03:15:40.490Z,99.90
2019-03-21T03:18:10.011Z,99.90
2019-03-21T03:20:39.493Z,99.90
2019-03-21T03:23:08.885Z,99.90
2019-03-21T03:25:38.949Z,99.90
2019-03-21T03:28:23.547Z,99.90
2019-03-21T03:30:54.067Z,99.90
2019-03-21T03:33:23.801Z,99.90
2019-03-21T03:35:53.636Z,99.90
2019-03-21T03:38:23.024Z,99.90
2019-03-21T03:40:55.307Z,99.90
2019-03-21T03:43:25.437Z,99.90
2019-03-21T03:45:54.928Z,99.90
2019-03-21T03:48:24.359Z,99.90
2019-03-21T03:50:53.720Z,99.90
2019-03-21T03:53:23.177Z,99.90
2019-03-21T03:55:52.676Z,99.90
2019-03-21T03:58:22.930Z,99.90
2019-03-21T04:00:52.711Z,99.90
2019-03-21T04:03:22.224Z,99.90
2019-03-21T04:05:51.648Z,99.90
2019-03-21T04:08:21.114Z,99.90
2019-03-21T04:10:50.817Z,99.90
2019-03-21T04:13:20.626Z,99.90
2019-03-21T04:15:53.101Z,99.90
2019-03-21T04:18:21.559Z,99.90
2019-03-21T04:20:51.072Z,99.90
2019-03-21T04:23:20.759Z,99.90
2019-03-21T04:26:11.322Z,99.90
2019-03-21T04:28:40.946Z,99.90
2019-03-21T04:31:10.274Z,99.90
2019-03-21T04:33:39.600Z,99.90
2019-03-21T04:36:08.901Z,99.90
2019-03-21T04:38:38.627Z,99.90
2019-03-21T04:41:07.953Z,99.90
2019-03-21T04:43:37.367Z,99.90
2019-03-21T04:46:06.756Z,99.90
2019-03-21T04:48:36.084Z,99.90
2019-03-21T04:51:05.489Z,99.90
2019-03-21T04:53:34.893Z,99.90
2019-03-21T04:56:04.286Z,99.90
2019-03-21T04:58:33.600Z,99.90
2019-03-21T05:01:03.254Z,99.90
2019-03-21T05:03:32.870Z,99.90
2019-03-21T05:06:02.224Z,99.90
2019-03-21T05:08:31.544Z,99.90
2019-03-21T05:11:00.881Z,99.90
2019-03-21T05:13:30.211Z,99.90
2019-03-21T05:15:59.547Z,99.90
2019-03-21T05:18:32.178Z,99.90
2019-03-21T05:21:01.564Z,99.90
2019-03-21T05:23:30.905Z,99.90
2019-03-21T05:26:00.216Z,99.90
2019-03-21T05:28:29.531Z,99.90
2019-03-21T05:31:02.046Z,99.90
2019-03-21T05:33:31.724Z,99.90
2019-03-21T05:36:01.738Z,99.90
2019-03-21T05:38:32.106Z,99.90
2019-03-21T05:41:01.430Z,99.90
2019-03-21T05:43:34.777Z,99.90
2019-03-21T05:46:04.197Z,99.90
2019-03-21T05:48:33.526Z,99.90
2019-03-21T05:51:02.844Z,99.90
2019-03-21T05:53:32.169Z,99.90
2019-03-21T05:56:01.898Z,99.90
2019-03-21T05:58:31.278Z,99.90
2019-03-21T06:01:00.753Z,99.90
2019-03-21T06:03:33.685Z,99.90
2019-03-21T06:06:13.340Z,99.90
2019-03-21T06:08:42.785Z,99.90
2019-03-21T06:11:12.100Z,99.90
2019-03-21T06:13:41.480Z,99.90
2019-03-21T06:16:11.644Z,99.90
2019-03-21T06:19:20.772Z,99.90
2019-03-21T06:22:05.656Z,99.90
2019-03-21T06:24:57.021Z,99.90
2019-03-21T06:27:29.513Z,99.90
2019-03-21T06:29:59.276Z,99.90
2019-03-21T06:32:28.802Z,99.80
2019-03-21T06:34:58.861Z,99.20
2019-03-21T06:37:29.020Z,98.60
2019-03-21T06:39:58.892Z,97.20
2019-03-21T06:42:28.321Z,96.40
2019-03-21T06:44:57.683Z,95.80
2019-03-21T06:47:27.057Z,95.50
2019-03-21T06:49:56.823Z,94.30
2019-03-21T06:52:26.175Z,95.10
2019-03-21T06:54:55.570Z,94.80
2019-03-21T06:57:24.921Z,94.20
2019-03-21T06:59:54.314Z,93.90
2019-03-21T07:02:23.667Z,94.00
2019-03-21T07:04:53.120Z,93.80
2019-03-21T07:07:22.536Z,94.00
2019-03-21T07:09:52.156Z,94.70
2019-03-21T07:12:21.498Z,93.80
2019-03-21T07:14:50.885Z,93.00
2019-03-21T07:17:22.827Z,92.00
2019-03-21T07:19:51.342Z,92.40
2019-03-21T07:22:20.744Z,92.40
2019-03-21T07:24:50.104Z,91.70
2019-03-21T07:27:19.545Z,90.90
2019-03-21T07:29:48.887Z,90.10
2019-03-21T07:32:18.243Z,89.10
2019-03-21T07:34:47.659Z,87.40
2019-03-21T07:37:17.094Z,84.90
2019-03-21T07:39:46.453Z,84.00
2019-03-21T07:42:15.900Z,82.70
2019-03-21T07:44:45.630Z,82.10
2019-03-21T07:47:15.378Z,80.70
2019-03-21T07:49:44.777Z,79.60
2019-03-21T07:52:14.876Z,78.10
2019-03-21T07:54:44.188Z,78.20
2019-03-21T07:57:13.867Z,78.10
2019-03-21T07:59:43.237Z,76.90
2019-03-21T08:02:12.591Z,77.60
2019-03-21T08:04:42.168Z,76.10
2019-03-21T08:07:11.489Z,73.90
2019-03-21T08:09:41.284Z,72.20
2019-03-21T08:12:10.787Z,72.00
2019-03-21T08:14:40.241Z,72.40
2019-03-21T08:17:09.929Z,71.10
2019-03-21T08:19:39.237Z,69.50
2019-03-21T08:22:08.904Z,68.50
2019-03-21T08:24:39.004Z,67.50
2019-03-21T08:27:08.328Z,67.70
2019-03-21T08:29:37.669Z,66.00
2019-03-21T08:32:07.064Z,64.90
2019-03-21T08:34:36.381Z,66.00
2019-03-21T08:37:05.804Z,64.40
2019-03-21T08:39:35.130Z,65.60
2019-03-21T08:42:04.528Z,64.40
2019-03-21T08:44:34.656Z,62.70
2019-03-21T08:47:06.387Z,60.60
2019-03-21T08:49:35.705Z,61.20
2019-03-21T08:52:05.119Z,60.00
2019-03-21T08:54:35.109Z,59.20
2019-03-21T08:57:04.676Z,59.50
2019-03-21T08:59:33.998Z,58.60
2019-03-21T09:02:03.649Z,57.40
2019-03-21T09:04:32.952Z,57.00
2019-03-21T09:07:02.981Z,57.20
2019-03-21T09:09:32.300Z,56.60
2019-03-21T09:12:01.877Z,55.10
2019-03-21T09:14:31.205Z,56.20
2019-03-21T09:17:00.850Z,56.40
2019-03-21T09:19:31.283Z,55.00
2019-03-21T09:22:01.041Z,53.60
2019-03-21T09:24:31.851Z,53.40
2019-03-21T09:27:01.254Z,52.90
2019-03-21T09:29:30.556Z,52.20
2019-03-21T09:31:59.866Z,51.80
2019-03-21T09:34:29.167Z,51.40
2019-03-21T09:36:58.490Z,49.90
2019-03-21T09:39:27.792Z,51.90
2019-03-21T09:41:57.106Z,50.20
2019-03-21T09:44:27.596Z,49.90
2019-03-21T09:46:57.094Z,48.70
2019-03-21T09:49:26.515Z,48.60
2019-03-21T09:51:56.210Z,47.50
2019-03-21T09:54:25.585Z,47.90
2019-03-21T09:56:54.886Z,46.00
2019-03-21T09:59:24.234Z,46.90
2019-03-21T10:01:54.507Z,45.60
2019-03-21T10:04:24.273Z,47.50
2019-03-21T10:06:53.620Z,46.00
2019-03-21T10:09:23.071Z,45.60
2019-03-21T10:11:52.409Z,44.80
2019-03-21T10:14:21.780Z,45.60
2019-03-21T10:16:51.120Z,43.70
2019-03-21T10:19:20.439Z,44.40
2019-03-21T10:21:49.775Z,44.20
2019-03-21T10:24:19.148Z,45.30
2019-03-21T10:27:07.490Z,44.90
2019-03-21T10:29:36.900Z,42.90
2019-03-21T10:32:14.119Z,43.80
2019-03-21T10:34:37.319Z,42.80
2019-03-21T10:37:06.660Z,43.50
2019-03-21T10:39:35.992Z,43.70
2019-03-21T10:42:05.352Z,42.40
2019-03-21T10:44:34.676Z,43.70
2019-03-21T10:47:03.996Z,41.90
2019-03-21T10:49:33.329Z,42.40
2019-03-21T10:52:02.970Z,41.90
2019-03-21T10:54:32.293Z,41.30
2019-03-21T10:57:01.611Z,39.50
2019-03-21T10:59:31.584Z,39.90
2019-03-21T11:02:07.136Z,39.60
2019-03-21T11:04:32.249Z,38.90
2019-03-21T11:07:03.104Z,39.40
2019-03-21T11:09:32.479Z,38.20
2019-03-21T11:12:01.948Z,38.40
2019-03-21T11:14:31.262Z,38.30
2019-03-21T11:17:00.584Z,38.90
2019-03-21T11:19:29.918Z,38.10
2019-03-21T11:22:06.335Z,37.40
2019-03-21T11:24:30.860Z,37.00
2019-03-21T11:27:00.168Z,38.30
2019-03-21T11:29:29.472Z,37.80
2019-03-21T11:31:59.136Z,38.50
2019-03-21T11:34:28.565Z,35.70
2019-03-21T11:36:57.962Z,35.90
2019-03-21T11:39:27.629Z,36.60
2019-03-21T11:41:56.973Z,35.40
2019-03-21T11:44:26.314Z,36.60
2019-03-21T11:46:55.694Z,36.00
2019-03-21T11:49:25.025Z,36.10
2019-03-21T11:51:54.329Z,35.50
2019-03-21T11:54:23.939Z,34.00
2019-03-21T11:56:53.342Z,35.20
2019-03-21T11:59:22.657Z,35.00
2019-03-21T12:01:52.237Z,35.00
2019-03-21T12:04:21.681Z,34.00
2019-03-21T12:06:51.015Z,34.00
2019-03-21T12:09:20.658Z,35.10
2019-03-21T12:11:49.978Z,35.90
2019-03-21T12:14:19.666Z,34.30
2019-03-21T12:16:49.273Z,33.40
2019-03-21T12:19:18.599Z,35.00
2019-03-21T12:21:48.486Z,33.60
2019-03-21T12:24:17.796Z,34.50
2019-03-21T12:26:47.230Z,33.90
2019-03-21T12:29:16.556Z,35.00
2019-03-21T12:31:45.879Z,33.70
2019-03-21T12:34:15.494Z,34.70
2019-03-21T12:36:44.828Z,34.40
2019-03-21T12:39:14.300Z,34.60
2019-03-21T12:41:44.032Z,34.40
2019-03-21T12:44:13.390Z,33.90
2019-03-21T12:46:42.707Z,33.60
2019-03-21T12:49:12.064Z,34.00
2019-03-21T12:51:41.717Z,34.80
2019-03-21T12:54:11.037Z,33.30
2019-03-21T12:56:40.373Z,33.50
2019-03-21T12:59:09.710Z,33.20
2019-03-21T13:01:39.353Z,32.90
2019-03-21T13:04:08.726Z,32.90
2019-03-21T13:06:38.114Z,33.80
2019-03-21T13:09:08.196Z,32.70
2019-03-21T13:11:37.532Z,32.70
2019-03-21T13:14:06.980Z,32.40
2019-03-21T13:16:36.387Z,32.10
2019-03-21T13:19:07.314Z,32.70
2019-03-21T13:21:36.665Z,31.90
2019-03-21T13:24:06.008Z,31.80
2019-03-21T13:26:35.408Z,31.90
2019-03-21T13:29:04.895Z,32.00
2019-03-21T13:31:34.216Z,32.40
2019-03-21T13:34:03.618Z,31.90
2019-03-21T13:36:32.937Z,32.50
2019-03-21T13:39:02.609Z,32.10
2019-03-21T13:41:31.980Z,31.60
2019-03-21T13:44:01.291Z,33.90
2019-03-21T13:46:30.641Z,33.20
2019-03-21T13:49:00.028Z,31.00
2019-03-21T13:51:29.664Z,31.80
2019-03-21T13:53:59.009Z,32.60
2019-03-21T13:56:37.800Z,32.90
2019-03-21T13:58:59.724Z,31.30
2019-03-21T14:01:29.417Z,31.40
2019-03-21T14:03:58.732Z,31.50
2019-03-21T14:06:28.904Z,32.00
2019-03-21T14:08:58.344Z,31.10
2019-03-21T14:11:27.755Z,31.60
2019-03-21T14:13:57.580Z,31.60
2019-03-21T14:16:26.903Z,32.80
2019-03-21T14:18:56.572Z,32.80
2019-03-21T14:21:25.904Z,32.00
2019-03-21T14:23:55.569Z,31.00
2019-03-21T14:26:24.903Z,29.90
2019-03-21T14:28:54.536Z,32.10
2019-03-21T14:31:23.937Z,30.30
2019-03-21T14:33:53.245Z,30.40
2019-03-21T14:36:22.662Z,30.80
2019-03-21T14:38:51.983Z,31.40
2019-03-21T14:41:21.316Z,30.90
2019-03-21T14:43:50.660Z,31.30
2019-03-21T14:46:20.048Z,31.00
2019-03-21T14:48:49.736Z,31.30
2019-03-21T14:51:19.517Z,31.90
2019-03-21T14:53:49.205Z,31.30
2019-03-21T14:56:18.537Z,31.60
2019-03-21T14:58:47.904Z,30.50
2019-03-21T15:01:17.224Z,30.30
2019-03-21T15:03:46.669Z,31.20
2019-03-21T15:06:16.580Z,32.60
2019-03-21T15:08:46.237Z,33.20
2019-03-21T15:11:17.194Z,32.20
2019-03-21T15:13:46.615Z,32.50
2019-03-21T15:16:16.290Z,33.40
2019-03-21T15:18:46.309Z,34.50
2019-03-21T15:21:15.652Z,35.00
2019-03-21T15:23:45.076Z,33.50
2019-03-21T15:26:14.511Z,32.10
2019-03-21T15:28:44.209Z,31.00
2019-03-21T15:31:13.549Z,32.00
2019-03-21T15:33:42.896Z,33.10
2019-03-21T15:36:12.212Z,34.20
2019-03-21T15:38:41.837Z,34.60
2019-03-21T15:41:11.154Z,35.40
2019-03-21T15:43:40.825Z,36.70
2019-03-21T15:46:10.561Z,36.80
2019-03-21T15:48:40.171Z,36.60
2019-03-21T15:51:09.536Z,36.30
2019-03-21T15:53:38.883Z,36.50
2019-03-21T15:56:08.345Z,36.00
2019-03-21T15:58:38.288Z,36.70
2019-03-21T16:01:07.957Z,36.80
2019-03-21T16:03:37.352Z,36.80
2019-03-21T16:06:06.888Z,37.50
2019-03-21T16:08:36.516Z,37.40
2019-03-21T16:11:05.854Z,37.80
2019-03-21T16:13:35.495Z,37.90
2019-03-21T16:16:04.945Z,38.10
2019-03-21T16:18:34.322Z,38.50
2019-03-21T16:21:05.931Z,38.30
2019-03-21T16:23:34.884Z,39.40
2019-03-21T16:26:04.209Z,39.00
2019-03-21T16:28:34.599Z,38.80
2019-03-21T16:31:04.201Z,39.00
2019-03-21T16:33:33.565Z,39.10
2019-03-21T16:36:03.012Z,39.10
2019-03-21T16:38:32.368Z,39.60
2019-03-21T16:41:01.818Z,39.80
2019-03-21T16:43:31.182Z,39.70
2019-03-21T16:46:00.688Z,40.40
2019-03-21T16:48:30.020Z,40.50
2019-03-21T16:50:59.403Z,40.60
2019-03-21T16:53:28.776Z,40.00
2019-03-21T16:55:58.197Z,40.30
2019-03-21T16:58:27.692Z,39.90
2019-03-21T17:00:57.031Z,40.10
2019-03-21T17:03:26.373Z,40.30
2019-03-21T17:05:55.726Z,39.60
2019-03-21T17:08:25.092Z,40.20
2019-03-21T17:10:54.823Z,40.30
2019-03-21T17:13:24.263Z,40.40
2019-03-21T17:15:56.528Z,40.70
2019-03-21T17:18:26.320Z,41.00
2019-03-21T17:20:55.853Z,40.50
2019-03-21T17:23:25.358Z,41.00
2019-03-21T17:25:55.065Z,40.40
2019-03-21T17:28:24.449Z,40.30
2019-03-21T17:30:53.944Z,40.50
2019-03-21T17:33:23.648Z,40.70
2019-03-21T17:35:53.469Z,40.80
2019-03-21T17:38:22.949Z,41.00
2019-03-21T17:40:52.398Z,41.30
2019-03-21T17:43:22.193Z,41.90
2019-03-21T17:45:51.577Z,42.00
2019-03-21T17:48:20.989Z,41.30
2019-03-21T17:50:50.718Z,41.90
2019-03-21T17:53:20.131Z,41.10
2019-03-21T17:55:49.462Z,41.70
2019-03-21T17:58:18.816Z,42.30
2019-03-21T18:00:48.284Z,43.00
2019-03-21T18:03:17.746Z,43.60
2019-03-21T18:05:47.133Z,43.90
2019-03-21T18:08:24.499Z,44.40
2019-03-21T18:10:53.968Z,45.20
2019-03-21T18:13:23.323Z,45.50
2019-03-21T18:15:52.736Z,45.70
2019-03-21T18:18:22.112Z,46.30
2019-03-21T18:20:56.764Z,46.50
2019-03-21T18:23:26.653Z,46.70
2019-03-21T18:25:56.488Z,46.00
2019-03-21T18:28:25.945Z,45.80
2019-03-21T18:30:55.484Z,46.30
2019-03-21T18:33:25.163Z,46.60
2019-03-21T18:35:54.873Z,47.20
2019-03-21T18:38:24.445Z,46.90
2019-03-21T18:40:54.089Z,47.10
2019-03-21T18:43:23.590Z,47.00
2019-03-21T18:45:53.285Z,47.40
2019-03-21T18:48:23.296Z,47.50
2019-03-21T18:50:57.777Z,48.00
2019-03-21T18:53:27.369Z,48.40
2019-03-21T18:55:57.430Z,49.10
2019-03-21T18:58:26.770Z,49.20
2019-03-21T19:00:57.082Z,49.90
2019-03-21T19:03:26.600Z,50.30
2019-03-21T19:05:56.080Z,50.60
2019-03-21T19:08:25.543Z,51.30
2019-03-21T19:10:55.017Z,51.70
2019-03-21T19:13:24.415Z,52.40
2019-03-21T19:15:55.620Z,52.40
2019-03-21T19:18:25.023Z,52.30
2019-03-21T19:20:54.525Z,53.10
2019-03-21T19:23:24.141Z,53.80
2019-03-21T19:25:54.096Z,53.90
2019-03-21T19:28:23.588Z,54.10
2019-03-21T19:30:53.089Z,54.30
2019-03-21T19:33:22.587Z,55.40
2019-03-21T19:35:51.971Z,55.50
2019-03-21T19:38:23.861Z,55.60
2019-03-21T19:40:54.543Z,55.20
2019-03-21T19:43:25.124Z,55.80
2019-03-21T19:45:55.256Z,56.00
2019-03-21T19:48:24.851Z,55.90
2019-03-21T19:50:56.195Z,56.30
2019-03-21T19:53:25.521Z,56.70
2019-03-21T19:55:55.035Z,57.10
2019-03-21T19:58:24.404Z,57.40
2019-03-21T20:00:54.475Z,57.50
2019-03-21T20:03:24.032Z,57.50
2019-03-21T20:06:00.154Z,57.90
2019-03-21T20:08:24.648Z,58.00
2019-03-21T20:10:54.100Z,58.30
2019-03-21T20:13:23.445Z,58.30
2019-03-21T20:15:55.870Z,59.30
2019-03-21T20:18:25.566Z,59.10
2019-03-21T20:20:55.044Z,59.20
2019-03-21T20:23:24.397Z,59.40
2019-03-21T20:25:53.739Z,59.80
2019-03-21T20:28:23.189Z,59.50
2019-03-21T20:30:52.648Z,59.60
2019-03-21T20:33:22.065Z,59.40
2019-03-21T20:35:51.899Z,59.80
2019-03-21T20:38:21.298Z,60.30
2019-03-21T20:40:50.666Z,60.60
2019-03-21T20:43:20.295Z,60.80
2019-03-21T20:45:49.816Z,61.00
2019-03-21T20:48:28.937Z,61.40
2019-03-21T20:51:11.759Z,61.70
2019-03-21T20:53:41.141Z,62.00
2019-03-21T20:56:12.405Z,62.40
2019-03-21T20:58:41.915Z,63.00
2019-03-21T21:01:11.500Z,63.20
2019-03-21T21:03:42.677Z,63.60
2019-03-21T21:06:12.314Z,64.10
2019-03-21T21:08:41.844Z,64.40
2019-03-21T21:11:11.523Z,64.60
2019-03-21T21:13:41.822Z,65.00
2019-03-21T21:16:11.988Z,65.20
2019-03-21T21:18:41.625Z,65.70
2019-03-21T21:21:11.661Z,65.60
2019-03-21T21:23:41.093Z,65.70
2019-03-21T21:26:10.645Z,65.00
2019-03-21T21:28:40.050Z,65.40
2019-03-21T21:31:09.676Z,65.50
2019-03-21T21:33:39.114Z,65.50
2019-03-21T21:36:08.677Z,65.70
2019-03-21T21:38:38.017Z,66.30
2019-03-21T21:41:08.512Z,66.90
2019-03-21T21:43:37.882Z,67.00
2019-03-21T21:46:07.364Z,67.90
2019-03-21T21:48:36.757Z,68.30
2019-03-21T21:51:08.540Z,68.80
2019-03-21T21:53:38.156Z,69.00
2019-03-21T21:56:17.191Z,69.30
2019-03-21T21:58:38.802Z,69.70
2019-03-21T22:01:08.310Z,70.40
2019-03-21T22:03:37.686Z,70.50
2019-03-21T22:06:07.760Z,70.80
2019-03-21T22:08:37.309Z,71.10
2019-03-21T22:11:06.693Z,71.60
2019-03-21T22:13:36.278Z,71.90
2019-03-21T22:16:25.983Z,72.50
2019-03-21T22:18:55.383Z,72.70
2019-03-21T22:21:24.986Z,73.30
2019-03-21T22:23:55.100Z,73.00
2019-03-21T22:26:29.855Z,73.10
2019-03-21T22:28:56.952Z,73.20
2019-03-21T22:31:26.532Z,73.70
2019-03-21T22:33:55.881Z,73.60
2019-03-21T22:36:25.277Z,73.70
2019-03-21T22:38:54.640Z,74.10
2019-03-21T22:41:23.936Z,74.60
2019-03-21T22:43:53.507Z,74.60
2019-03-21T22:46:23.392Z,74.80
2019-03-21T22:48:52.765Z,74.90
2019-03-21T22:51:22.141Z,75.50
2019-03-21T22:53:51.808Z,75.90
2019-03-21T22:56:21.414Z,76.40
2019-03-21T22:58:50.998Z,76.70
2019-03-21T23:01:20.376Z,76.80
2019-03-21T23:03:49.866Z,77.60
2019-03-21T23:06:19.398Z,78.30
2019-03-21T23:08:48.733Z,78.80
2019-03-21T23:11:19.393Z,79.80
2019-03-21T23:13:49.063Z,79.10
2019-03-21T23:16:18.503Z,79.90
2019-03-21T23:18:48.131Z,80.40
2019-03-21T23:21:17.456Z,81.10
2019-03-21T23:23:47.096Z,81.40
2019-03-21T23:26:16.748Z,82.00
2019-03-21T23:28:46.064Z,82.60
2019-03-21T23:31:15.721Z,83.00
2019-03-21T23:33:45.040Z,83.40
2019-03-21T23:36:14.488Z,83.50
2019-03-21T23:38:43.803Z,83.70
2019-03-21T23:41:15.184Z,83.80
2019-03-21T23:43:44.521Z,84.20
2019-03-21T23:46:14.200Z,83.60
2019-03-21T23:48:43.520Z,83.80
2019-03-21T23:51:13.197Z,84.10
2019-03-21T23:53:42.590Z,84.70
2019-03-21T23:56:12.177Z,84.50
2019-03-21T23:58:41.504Z,85.10
